sensor_id;sensor_type;location;lat;lon;timestamp;P1;durP1;ratioP1;P2;durP2;ratioP2
69878;SDS011;57161;43.136;24.706;2023-10-09T00:02:11;6.07;;;1.50;;
69878;SDS011;57161;43.136;24.706;2023-10-09T00:04:39;5.63;;;1.15;;
69878;SDS011;57161;43.136;24.706;2023-10-09T00:07:13;8.15;;;1.02;;
69878;SDS011;57161;43.136;24.706;2023-10-09T00:09:42;6.95;;;1.10;;
69878;SDS011;57161;43.136;24.706;2023-10-09T00:14:47;3.50;;;0.80;;
69878;SDS011;57161;43.136;24.706;2023-10-09T00:17:15;7.05;;;1.02;;
69878;SDS011;57161;43.136;24.706;2023-10-09T00:19:45;6.05;;;1.02;;
69878;SDS011;57161;43.136;24.706;2023-10-09T00:22:24;4.72;;;0.90;;
69878;SDS011;57161;43.136;24.706;2023-10-09T00:24:50;5.85;;;0.90;;
69878;SDS011;57161;43.136;24.706;2023-10-09T00:27:34;3.92;;;0.90;;
69878;SDS011;57161;43.136;24.706;2023-10-09T00:30:01;3.67;;;1.00;;
69878;SDS011;57161;43.136;24.706;2023-10-09T00:32:28;3.95;;;0.85;;
69878;SDS011;57161;43.136;24.706;2023-10-09T00:34:58;5.18;;;1.00;;
69878;SDS011;57161;43.136;24.706;2023-10-09T00:37:38;3.63;;;1.17;;
69878;SDS011;57161;43.136;24.706;2023-10-09T00:40:05;3.58;;;1.00;;
69878;SDS011;57161;43.136;24.706;2023-10-09T00:42:45;3.03;;;0.93;;
69878;SDS011;57161;43.136;24.706;2023-10-09T00:45:11;6.32;;;1.10;;
69878;SDS011;57161;43.136;24.706;2023-10-09T00:47:41;5.97;;;1.00;;
69878;SDS011;57161;43.136;24.706;2023-10-09T00:50:09;5.05;;;0.95;;
69878;SDS011;57161;43.136;24.706;2023-10-09T00:52:41;3.67;;;1.17;;
69878;SDS011;57161;43.136;24.706;2023-10-09T00:55:26;6.15;;;1.20;;
69878;SDS011;57161;43.136;24.706;2023-10-09T00:58:14;6.10;;;1.08;;
69878;SDS011;57161;43.136;24.706;2023-10-09T01:00:49;0.93;;;0.60;;
69878;SDS011;57161;43.136;24.706;2023-10-09T01:03:17;3.03;;;0.90;;
69878;SDS011;57161;43.136;24.706;2023-10-09T01:08:38;3.45;;;0.60;;
69878;SDS011;57161;43.136;24.706;2023-10-09T01:11:07;3.22;;;0.93;;
69878;SDS011;57161;43.136;24.706;2023-10-09T01:13:43;8.13;;;1.00;;
69878;SDS011;57161;43.136;24.706;2023-10-09T01:16:14;5.03;;;0.90;;
69878;SDS011;57161;43.136;24.706;2023-10-09T01:18:47;5.13;;;0.60;;
69878;SDS011;57161;43.136;24.706;2023-10-09T01:21:18;3.78;;;0.70;;
69878;SDS011;57161;43.136;24.706;2023-10-09T01:23:51;6.28;;;1.00;;
69878;SDS011;57161;43.136;24.706;2023-10-09T01:26:29;7.10;;;1.02;;
69878;SDS011;57161;43.136;24.706;2023-10-09T01:29:04;10.02;;;1.27;;
69878;SDS011;57161;43.136;24.706;2023-10-09T01:31:42;4.85;;;1.02;;
69878;SDS011;57161;43.136;24.706;2023-10-09T01:34:33;4.25;;;1.13;;
69878;SDS011;57161;43.136;24.706;2023-10-09T01:37:11;7.32;;;1.27;;
69878;SDS011;57161;43.136;24.706;2023-10-09T01:39:47;3.67;;;0.70;;
69878;SDS011;57161;43.136;24.706;2023-10-09T01:42:14;7.68;;;1.00;;
69878;SDS011;57161;43.136;24.706;2023-10-09T01:44:50;2.75;;;0.70;;
69878;SDS011;57161;43.136;24.706;2023-10-09T01:47:17;3.38;;;0.70;;
69878;SDS011;57161;43.136;24.706;2023-10-09T01:49:44;2.15;;;0.73;;
69878;SDS011;57161;43.136;24.706;2023-10-09T01:52:14;2.70;;;0.82;;
69878;SDS011;57161;43.136;24.706;2023-10-09T01:54:44;4.15;;;0.85;;
69878;SDS011;57161;43.136;24.706;2023-10-09T01:57:14;3.23;;;0.90;;
69878;SDS011;57161;43.136;24.706;2023-10-09T01:59:44;5.32;;;1.10;;
69878;SDS011;57161;43.136;24.706;2023-10-09T02:04:57;5.93;;;1.20;;
69878;SDS011;57161;43.136;24.706;2023-10-09T02:07:35;5.78;;;1.30;;
69878;SDS011;57161;43.136;24.706;2023-10-09T02:12:51;5.35;;;1.30;;
69878;SDS011;57161;43.136;24.706;2023-10-09T02:15:26;6.35;;;1.30;;
69878;SDS011;57161;43.136;24.706;2023-10-09T02:18:16;2.97;;;0.93;;
69878;SDS011;57161;43.136;24.706;2023-10-09T02:26:04;2.75;;;0.90;;
69878;SDS011;57161;43.136;24.706;2023-10-09T02:28:31;2.78;;;1.20;;
69878;SDS011;57161;43.136;24.706;2023-10-09T02:31:21;4.55;;;1.30;;
69878;SDS011;57161;43.136;24.706;2023-10-09T02:33:50;7.07;;;1.30;;
69878;SDS011;57161;43.136;24.706;2023-10-09T02:36:18;1.45;;;0.82;;
69878;SDS011;57161;43.136;24.706;2023-10-09T02:38:44;3.28;;;0.85;;
69878;SDS011;57161;43.136;24.706;2023-10-09T02:41:09;4.60;;;1.40;;
69878;SDS011;57161;43.136;24.706;2023-10-09T02:43:37;4.43;;;1.10;;
69878;SDS011;57161;43.136;24.706;2023-10-09T02:46:21;3.60;;;1.45;;
69878;SDS011;57161;43.136;24.706;2023-10-09T02:48:56;4.47;;;1.20;;
69878;SDS011;57161;43.136;24.706;2023-10-09T02:51:28;4.95;;;1.23;;
69878;SDS011;57161;43.136;24.706;2023-10-09T02:54:02;3.92;;;1.10;;
69878;SDS011;57161;43.136;24.706;2023-10-09T02:56:52;6.97;;;1.00;;
69878;SDS011;57161;43.136;24.706;2023-10-09T02:59:43;5.32;;;0.88;;
69878;SDS011;57161;43.136;24.706;2023-10-09T03:02:10;5.68;;;1.38;;
69878;SDS011;57161;43.136;24.706;2023-10-09T03:04:36;4.45;;;1.25;;
69878;SDS011;57161;43.136;24.706;2023-10-09T03:07:04;4.50;;;1.05;;
69878;SDS011;57161;43.136;24.706;2023-10-09T03:09:30;3.15;;;1.30;;
69878;SDS011;57161;43.136;24.706;2023-10-09T03:12:01;7.38;;;2.25;;
69878;SDS011;57161;43.136;24.706;2023-10-09T03:14:28;4.65;;;1.65;;
69878;SDS011;57161;43.136;24.706;2023-10-09T03:17:00;3.70;;;1.48;;
69878;SDS011;57161;43.136;24.706;2023-10-09T03:19:27;4.75;;;1.33;;
69878;SDS011;57161;43.136;24.706;2023-10-09T03:22:05;1.58;;;1.10;;
69878;SDS011;57161;43.136;24.706;2023-10-09T03:24:35;3.10;;;1.50;;
69878;SDS011;57161;43.136;24.706;2023-10-09T03:27:10;6.03;;;1.25;;
69878;SDS011;57161;43.136;24.706;2023-10-09T03:29:39;3.05;;;1.33;;
69878;SDS011;57161;43.136;24.706;2023-10-09T03:32:04;4.13;;;1.10;;
69878;SDS011;57161;43.136;24.706;2023-10-09T03:34:31;3.45;;;1.10;;
69878;SDS011;57161;43.136;24.706;2023-10-09T03:36:56;1.95;;;1.00;;
69878;SDS011;57161;43.136;24.706;2023-10-09T03:39:32;2.80;;;1.40;;
69878;SDS011;57161;43.136;24.706;2023-10-09T03:42:00;4.18;;;1.45;;
69878;SDS011;57161;43.136;24.706;2023-10-09T03:44:33;3.28;;;1.20;;
69878;SDS011;57161;43.136;24.706;2023-10-09T03:47:01;7.57;;;1.25;;
69878;SDS011;57161;43.136;24.706;2023-10-09T03:49:27;10.30;;;1.38;;
69878;SDS011;57161;43.136;24.706;2023-10-09T03:51:54;4.57;;;1.63;;
69878;SDS011;57161;43.136;24.706;2023-10-09T03:54:20;3.63;;;1.45;;
69878;SDS011;57161;43.136;24.706;2023-10-09T03:56:47;3.70;;;1.35;;
69878;SDS011;57161;43.136;24.706;2023-10-09T03:59:19;2.22;;;1.40;;
69878;SDS011;57161;43.136;24.706;2023-10-09T04:01:45;3.10;;;1.70;;
69878;SDS011;57161;43.136;24.706;2023-10-09T04:04:12;4.07;;;2.08;;
69878;SDS011;57161;43.136;24.706;2023-10-09T04:06:39;6.47;;;1.40;;
69878;SDS011;57161;43.136;24.706;2023-10-09T04:09:05;2.25;;;1.30;;
69878;SDS011;57161;43.136;24.706;2023-10-09T04:11:51;3.95;;;1.40;;
69878;SDS011;57161;43.136;24.706;2023-10-09T04:14:37;2.67;;;1.25;;
69878;SDS011;57161;43.136;24.706;2023-10-09T04:17:12;3.60;;;1.25;;
69878;SDS011;57161;43.136;24.706;2023-10-09T04:19:47;2.72;;;1.27;;
69878;SDS011;57161;43.136;24.706;2023-10-09T04:22:31;3.15;;;1.20;;
69878;SDS011;57161;43.136;24.706;2023-10-09T04:25:04;3.67;;;1.50;;
69878;SDS011;57161;43.136;24.706;2023-10-09T04:27:32;2.70;;;1.35;;
69878;SDS011;57161;43.136;24.706;2023-10-09T04:30:01;3.33;;;1.33;;
69878;SDS011;57161;43.136;24.706;2023-10-09T04:32:27;4.25;;;1.30;;
69878;SDS011;57161;43.136;24.706;2023-10-09T04:34:54;4.45;;;1.20;;
69878;SDS011;57161;43.136;24.706;2023-10-09T04:37:42;6.07;;;1.40;;
69878;SDS011;57161;43.136;24.706;2023-10-09T04:40:09;2.65;;;1.38;;
69878;SDS011;57161;43.136;24.706;2023-10-09T04:42:47;4.80;;;1.40;;
69878;SDS011;57161;43.136;24.706;2023-10-09T04:45:23;5.45;;;1.60;;
69878;SDS011;57161;43.136;24.706;2023-10-09T04:48:07;4.03;;;1.30;;
69878;SDS011;57161;43.136;24.706;2023-10-09T04:50:33;4.53;;;1.58;;
69878;SDS011;57161;43.136;24.706;2023-10-09T04:53:11;3.22;;;1.45;;
69878;SDS011;57161;43.136;24.706;2023-10-09T04:55:44;6.72;;;1.70;;
69878;SDS011;57161;43.136;24.706;2023-10-09T04:58:22;8.43;;;1.77;;
69878;SDS011;57161;43.136;24.706;2023-10-09T05:00:50;13.00;;;1.95;;
69878;SDS011;57161;43.136;24.706;2023-10-09T05:03:24;5.53;;;1.73;;
69878;SDS011;57161;43.136;24.706;2023-10-09T05:05:54;10.10;;;2.00;;
69878;SDS011;57161;43.136;24.706;2023-10-09T05:08:45;10.07;;;1.90;;
69878;SDS011;57161;43.136;24.706;2023-10-09T05:11:11;10.32;;;2.20;;
69878;SDS011;57161;43.136;24.706;2023-10-09T05:13:55;7.90;;;2.00;;
69878;SDS011;57161;43.136;24.706;2023-10-09T05:16:36;11.70;;;1.92;;
69878;SDS011;57161;43.136;24.706;2023-10-09T05:19:19;4.22;;;1.60;;
69878;SDS011;57161;43.136;24.706;2023-10-09T05:21:54;3.60;;;1.80;;
69878;SDS011;57161;43.136;24.706;2023-10-09T05:24:23;8.02;;;2.00;;
69878;SDS011;57161;43.136;24.706;2023-10-09T05:26:51;10.60;;;2.10;;
69878;SDS011;57161;43.136;24.706;2023-10-09T05:31:59;6.10;;;1.88;;
69878;SDS011;57161;43.136;24.706;2023-10-09T05:34:53;8.70;;;2.10;;
69878;SDS011;57161;43.136;24.706;2023-10-09T05:37:24;6.43;;;2.00;;
69878;SDS011;57161;43.136;24.706;2023-10-09T05:40:00;6.93;;;2.05;;
69878;SDS011;57161;43.136;24.706;2023-10-09T05:42:30;8.07;;;2.15;;
69878;SDS011;57161;43.136;24.706;2023-10-09T05:45:07;3.80;;;1.60;;
69878;SDS011;57161;43.136;24.706;2023-10-09T05:47:42;11.10;;;1.70;;
69878;SDS011;57161;43.136;24.706;2023-10-09T05:50:32;5.13;;;1.42;;
69878;SDS011;57161;43.136;24.706;2023-10-09T05:53:03;5.57;;;1.60;;
69878;SDS011;57161;43.136;24.706;2023-10-09T05:55:29;3.17;;;1.45;;
69878;SDS011;57161;43.136;24.706;2023-10-09T05:58:34;3.15;;;1.67;;
69878;SDS011;57161;43.136;24.706;2023-10-09T06:01:18;3.30;;;1.48;;
69878;SDS011;57161;43.136;24.706;2023-10-09T06:04:02;4.53;;;1.50;;
69878;SDS011;57161;43.136;24.706;2023-10-09T06:06:40;6.53;;;1.90;;
69878;SDS011;57161;43.136;24.706;2023-10-09T06:09:10;3.97;;;1.40;;
69878;SDS011;57161;43.136;24.706;2023-10-09T06:11:40;8.65;;;1.63;;
69878;SDS011;57161;43.136;24.706;2023-10-09T06:14:15;6.53;;;1.75;;
69878;SDS011;57161;43.136;24.706;2023-10-09T06:16:50;7.82;;;1.75;;
69878;SDS011;57161;43.136;24.706;2023-10-09T06:19:21;5.55;;;1.65;;
69878;SDS011;57161;43.136;24.706;2023-10-09T06:21:47;5.30;;;1.98;;
69878;SDS011;57161;43.136;24.706;2023-10-09T06:24:31;2.97;;;1.50;;
69878;SDS011;57161;43.136;24.706;2023-10-09T06:27:16;6.22;;;1.67;;
69878;SDS011;57161;43.136;24.706;2023-10-09T06:29:57;6.97;;;1.90;;
69878;SDS011;57161;43.136;24.706;2023-10-09T06:32:39;3.80;;;1.40;;
69878;SDS011;57161;43.136;24.706;2023-10-09T06:35:25;4.55;;;1.60;;
69878;SDS011;57161;43.136;24.706;2023-10-09T06:37:58;5.35;;;1.60;;
69878;SDS011;57161;43.136;24.706;2023-10-09T06:40:27;6.95;;;2.15;;
69878;SDS011;57161;43.136;24.706;2023-10-09T06:43:04;4.90;;;1.98;;
69878;SDS011;57161;43.136;24.706;2023-10-09T06:45:55;4.90;;;1.88;;
69878;SDS011;57161;43.136;24.706;2023-10-09T06:48:40;4.97;;;2.05;;
69878;SDS011;57161;43.136;24.706;2023-10-09T06:51:10;4.65;;;1.77;;
69878;SDS011;57161;43.136;24.706;2023-10-09T06:53:52;4.13;;;1.95;;
69878;SDS011;57161;43.136;24.706;2023-10-09T06:56:19;9.00;;;2.10;;
69878;SDS011;57161;43.136;24.706;2023-10-09T06:58:54;5.65;;;2.33;;
69878;SDS011;57161;43.136;24.706;2023-10-09T07:01:20;6.53;;;2.30;;
69878;SDS011;57161;43.136;24.706;2023-10-09T07:03:52;6.15;;;2.20;;
69878;SDS011;57161;43.136;24.706;2023-10-09T07:06:43;10.75;;;2.33;;
69878;SDS011;57161;43.136;24.706;2023-10-09T07:09:12;5.60;;;2.28;;
69878;SDS011;57161;43.136;24.706;2023-10-09T07:11:42;8.93;;;1.98;;
69878;SDS011;57161;43.136;24.706;2023-10-09T07:14:12;3.97;;;1.73;;
69878;SDS011;57161;43.136;24.706;2023-10-09T07:16:58;7.00;;;1.85;;
69878;SDS011;57161;43.136;24.706;2023-10-09T07:19:49;7.38;;;2.10;;
69878;SDS011;57161;43.136;24.706;2023-10-09T07:22:16;4.72;;;2.00;;
69878;SDS011;57161;43.136;24.706;2023-10-09T07:24:45;3.97;;;1.80;;
69878;SDS011;57161;43.136;24.706;2023-10-09T07:27:19;4.50;;;1.80;;
69878;SDS011;57161;43.136;24.706;2023-10-09T07:30:05;3.88;;;1.95;;
69878;SDS011;57161;43.136;24.706;2023-10-09T07:32:55;10.10;;;2.17;;
69878;SDS011;57161;43.136;24.706;2023-10-09T07:35:44;5.05;;;1.63;;
69878;SDS011;57161;43.136;24.706;2023-10-09T07:38:25;6.28;;;1.92;;
69878;SDS011;57161;43.136;24.706;2023-10-09T07:41:00;5.15;;;2.25;;
69878;SDS011;57161;43.136;24.706;2023-10-09T07:43:27;4.25;;;1.50;;
69878;SDS011;57161;43.136;24.706;2023-10-09T07:46:02;3.67;;;1.60;;
69878;SDS011;57161;43.136;24.706;2023-10-09T07:48:46;4.80;;;1.60;;
69878;SDS011;57161;43.136;24.706;2023-10-09T07:51:17;7.03;;;2.00;;
69878;SDS011;57161;43.136;24.706;2023-10-09T07:53:51;8.25;;;2.25;;
69878;SDS011;57161;43.136;24.706;2023-10-09T07:56:41;3.78;;;1.80;;
69878;SDS011;57161;43.136;24.706;2023-10-09T07:59:11;6.97;;;1.83;;
69878;SDS011;57161;43.136;24.706;2023-10-09T08:01:44;4.82;;;1.75;;
69878;SDS011;57161;43.136;24.706;2023-10-09T08:04:20;4.35;;;1.92;;
69878;SDS011;57161;43.136;24.706;2023-10-09T08:07:13;9.55;;;1.95;;
69878;SDS011;57161;43.136;24.706;2023-10-09T08:09:54;5.03;;;2.00;;
69878;SDS011;57161;43.136;24.706;2023-10-09T08:12:38;7.03;;;2.20;;
69878;SDS011;57161;43.136;24.706;2023-10-09T08:15:22;11.30;;;2.35;;
69878;SDS011;57161;43.136;24.706;2023-10-09T08:20:43;3.65;;;1.83;;
69878;SDS011;57161;43.136;24.706;2023-10-09T08:23:27;7.15;;;2.17;;
69878;SDS011;57161;43.136;24.706;2023-10-09T08:26:13;7.95;;;2.13;;
69878;SDS011;57161;43.136;24.706;2023-10-09T08:28:39;6.15;;;2.30;;
69878;SDS011;57161;43.136;24.706;2023-10-09T08:31:12;5.05;;;2.22;;
69878;SDS011;57161;43.136;24.706;2023-10-09T08:33:59;4.97;;;1.95;;
69878;SDS011;57161;43.136;24.706;2023-10-09T08:36:26;3.28;;;1.85;;
69878;SDS011;57161;43.136;24.706;2023-10-09T08:39:01;6.85;;;2.35;;
69878;SDS011;57161;43.136;24.706;2023-10-09T08:42:21;6.00;;;1.73;;
69878;SDS011;57161;43.136;24.706;2023-10-09T08:44:48;7.18;;;1.80;;
69878;SDS011;57161;43.136;24.706;2023-10-09T08:47:14;6.57;;;1.85;;
69878;SDS011;57161;43.136;24.706;2023-10-09T08:49:40;5.03;;;1.80;;
69878;SDS011;57161;43.136;24.706;2023-10-09T08:52:07;6.45;;;1.63;;
69878;SDS011;57161;43.136;24.706;2023-10-09T08:54:36;5.13;;;2.10;;
69878;SDS011;57161;43.136;24.706;2023-10-09T08:57:02;7.95;;;2.95;;
69878;SDS011;57161;43.136;24.706;2023-10-09T08:59:27;5.40;;;2.08;;
69878;SDS011;57161;43.136;24.706;2023-10-09T09:01:53;9.30;;;2.30;;
69878;SDS011;57161;43.136;24.706;2023-10-09T09:07:27;7.88;;;2.25;;
69878;SDS011;57161;43.136;24.706;2023-10-09T09:09:59;9.25;;;2.38;;
69878;SDS011;57161;43.136;24.706;2023-10-09T09:12:45;9.05;;;2.28;;
69878;SDS011;57161;43.136;24.706;2023-10-09T09:15:14;9.48;;;2.65;;
69878;SDS011;57161;43.136;24.706;2023-10-09T09:17:44;10.38;;;2.70;;
69878;SDS011;57161;43.136;24.706;2023-10-09T09:22:55;6.30;;;2.20;;
69878;SDS011;57161;43.136;24.706;2023-10-09T09:25:24;6.72;;;2.35;;
69878;SDS011;57161;43.136;24.706;2023-10-09T09:28:04;12.52;;;2.38;;
69878;SDS011;57161;43.136;24.706;2023-10-09T09:30:37;22.90;;;3.05;;
69878;SDS011;57161;43.136;24.706;2023-10-09T09:33:24;4.53;;;2.20;;
69878;SDS011;57161;43.136;24.706;2023-10-09T09:36:07;3.38;;;1.80;;
69878;SDS011;57161;43.136;24.706;2023-10-09T09:38:36;7.65;;;2.15;;
69878;SDS011;57161;43.136;24.706;2023-10-09T09:41:12;8.77;;;2.47;;
69878;SDS011;57161;43.136;24.706;2023-10-09T09:43:54;4.88;;;2.55;;
69878;SDS011;57161;43.136;24.706;2023-10-09T09:46:21;4.80;;;1.90;;
69878;SDS011;57161;43.136;24.706;2023-10-09T09:49:00;6.88;;;2.10;;
69878;SDS011;57161;43.136;24.706;2023-10-09T09:51:29;7.75;;;2.35;;
69878;SDS011;57161;43.136;24.706;2023-10-09T09:53:55;3.72;;;2.00;;
69878;SDS011;57161;43.136;24.706;2023-10-09T09:56:22;3.80;;;2.17;;
69878;SDS011;57161;43.136;24.706;2023-10-09T09:58:50;8.20;;;2.10;;
69878;SDS011;57161;43.136;24.706;2023-10-09T10:01:22;10.73;;;2.10;;
69878;SDS011;57161;43.136;24.706;2023-10-09T10:03:55;3.13;;;2.00;;
69878;SDS011;57161;43.136;24.706;2023-10-09T10:06:25;4.25;;;2.15;;
69878;SDS011;57161;43.136;24.706;2023-10-09T10:08:54;10.00;;;2.28;;
69878;SDS011;57161;43.136;24.706;2023-10-09T10:14:07;6.30;;;2.63;;
69878;SDS011;57161;43.136;24.706;2023-10-09T10:22:28;6.10;;;2.13;;
69878;SDS011;57161;43.136;24.706;2023-10-09T10:24:58;10.13;;;3.13;;
69878;SDS011;57161;43.136;24.706;2023-10-09T10:27:28;12.05;;;4.10;;
69878;SDS011;57161;43.136;24.706;2023-10-09T10:30:56;7.38;;;3.38;;
69878;SDS011;57161;43.136;24.706;2023-10-09T10:32:55;5.97;;;2.63;;
69878;SDS011;57161;43.136;24.706;2023-10-09T10:35:22;6.95;;;2.58;;
69878;SDS011;57161;43.136;24.706;2023-10-09T10:38:00;7.53;;;2.95;;
69878;SDS011;57161;43.136;24.706;2023-10-09T10:40:40;10.73;;;3.03;;
69878;SDS011;57161;43.136;24.706;2023-10-09T10:43:15;8.45;;;3.10;;
69878;SDS011;57161;43.136;24.706;2023-10-09T10:46:12;9.88;;;3.75;;
69878;SDS011;57161;43.136;24.706;2023-10-09T10:48:52;7.25;;;3.95;;
69878;SDS011;57161;43.136;24.706;2023-10-09T10:51:27;9.23;;;3.95;;
69878;SDS011;57161;43.136;24.706;2023-10-09T10:54:05;11.75;;;3.80;;
69878;SDS011;57161;43.136;24.706;2023-10-09T10:56:51;10.80;;;3.67;;
69878;SDS011;57161;43.136;24.706;2023-10-09T10:59:20;11.35;;;3.47;;
69878;SDS011;57161;43.136;24.706;2023-10-09T11:01:49;8.45;;;3.35;;
69878;SDS011;57161;43.136;24.706;2023-10-09T11:04:23;9.80;;;3.10;;
69878;SDS011;57161;43.136;24.706;2023-10-09T11:06:58;6.07;;;3.05;;
69878;SDS011;57161;43.136;24.706;2023-10-09T11:09:50;6.13;;;2.35;;
69878;SDS011;57161;43.136;24.706;2023-10-09T11:12:29;9.65;;;2.65;;
69878;SDS011;57161;43.136;24.706;2023-10-09T11:15:08;8.43;;;2.30;;
69878;SDS011;57161;43.136;24.706;2023-10-09T11:20:52;5.88;;;2.25;;
69878;SDS011;57161;43.136;24.706;2023-10-09T11:23:28;5.95;;;2.28;;
69878;SDS011;57161;43.136;24.706;2023-10-09T11:26:00;4.18;;;2.10;;
69878;SDS011;57161;43.136;24.706;2023-10-09T11:28:45;7.35;;;2.30;;
69878;SDS011;57161;43.136;24.706;2023-10-09T11:31:14;3.80;;;2.03;;
69878;SDS011;57161;43.136;24.706;2023-10-09T11:33:52;6.88;;;2.60;;
69878;SDS011;57161;43.136;24.706;2023-10-09T11:36:19;6.40;;;2.33;;
69878;SDS011;57161;43.136;24.706;2023-10-09T11:38:59;4.97;;;2.67;;
69878;SDS011;57161;43.136;24.706;2023-10-09T11:41:45;8.00;;;2.35;;
69878;SDS011;57161;43.136;24.706;2023-10-09T11:44:14;4.93;;;2.42;;
69878;SDS011;57161;43.136;24.706;2023-10-09T11:46:58;6.30;;;2.53;;
69878;SDS011;57161;43.136;24.706;2023-10-09T11:49:46;6.10;;;2.30;;
69878;SDS011;57161;43.136;24.706;2023-10-09T11:52:25;6.25;;;2.65;;
69878;SDS011;57161;43.136;24.706;2023-10-09T11:55:01;6.32;;;2.22;;
69878;SDS011;57161;43.136;24.706;2023-10-09T11:57:32;6.70;;;2.42;;
69878;SDS011;57161;43.136;24.706;2023-10-09T12:00:00;3.70;;;2.20;;
69878;SDS011;57161;43.136;24.706;2023-10-09T12:02:46;8.23;;;2.70;;
69878;SDS011;57161;43.136;24.706;2023-10-09T12:05:12;8.25;;;2.35;;
69878;SDS011;57161;43.136;24.706;2023-10-09T12:07:45;5.25;;;2.00;;
69878;SDS011;57161;43.136;24.706;2023-10-09T12:10:14;6.10;;;2.30;;
69878;SDS011;57161;43.136;24.706;2023-10-09T12:12:40;7.35;;;2.65;;
69878;SDS011;57161;43.136;24.706;2023-10-09T12:15:11;5.32;;;3.03;;
69878;SDS011;57161;43.136;24.706;2023-10-09T12:17:42;5.82;;;2.30;;
69878;SDS011;57161;43.136;24.706;2023-10-09T12:20:13;5.80;;;2.22;;
69878;SDS011;57161;43.136;24.706;2023-10-09T12:22:55;5.97;;;2.30;;
69878;SDS011;57161;43.136;24.706;2023-10-09T12:25:34;7.25;;;2.00;;
69878;SDS011;57161;43.136;24.706;2023-10-09T12:28:00;5.80;;;2.22;;
69878;SDS011;57161;43.136;24.706;2023-10-09T12:30:29;10.77;;;2.30;;
69878;SDS011;57161;43.136;24.706;2023-10-09T12:32:56;5.50;;;2.40;;
69878;SDS011;57161;43.136;24.706;2023-10-09T12:35:23;6.93;;;2.35;;
69878;SDS011;57161;43.136;24.706;2023-10-09T12:37:50;4.63;;;2.10;;
69878;SDS011;57161;43.136;24.706;2023-10-09T12:40:20;6.53;;;1.90;;
69878;SDS011;57161;43.136;24.706;2023-10-09T12:42:52;3.28;;;1.60;;
69878;SDS011;57161;43.136;24.706;2023-10-09T12:45:18;4.65;;;2.10;;
69878;SDS011;57161;43.136;24.706;2023-10-09T12:47:51;6.45;;;2.10;;
69878;SDS011;57161;43.136;24.706;2023-10-09T12:50:18;6.80;;;2.00;;
69878;SDS011;57161;43.136;24.706;2023-10-09T12:52:53;4.47;;;1.70;;
69878;SDS011;57161;43.136;24.706;2023-10-09T12:55:26;10.55;;;2.00;;
69878;SDS011;57161;43.136;24.706;2023-10-09T12:58:00;5.03;;;1.75;;
69878;SDS011;57161;43.136;24.706;2023-10-09T13:00:31;6.28;;;2.10;;
69878;SDS011;57161;43.136;24.706;2023-10-09T13:02:58;7.72;;;2.00;;
69878;SDS011;57161;43.136;24.706;2023-10-09T13:05:26;5.25;;;1.63;;
69878;SDS011;57161;43.136;24.706;2023-10-09T13:07:52;3.63;;;1.65;;
69878;SDS011;57161;43.136;24.706;2023-10-09T13:10:20;4.85;;;1.60;;
69878;SDS011;57161;43.136;24.706;2023-10-09T13:12:48;3.33;;;1.90;;
69878;SDS011;57161;43.136;24.706;2023-10-09T13:15:20;5.40;;;2.13;;
69878;SDS011;57161;43.136;24.706;2023-10-09T13:17:46;3.80;;;1.88;;
69878;SDS011;57161;43.136;24.706;2023-10-09T13:20:12;5.28;;;2.00;;
69878;SDS011;57161;43.136;24.706;2023-10-09T13:22:43;3.83;;;2.17;;
69878;SDS011;57161;43.136;24.706;2023-10-09T13:25:11;9.70;;;2.58;;
69878;SDS011;57161;43.136;24.706;2023-10-09T13:27:50;5.95;;;2.05;;
69878;SDS011;57161;43.136;24.706;2023-10-09T13:30:17;4.30;;;2.00;;
69878;SDS011;57161;43.136;24.706;2023-10-09T13:32:49;8.02;;;2.33;;
69878;SDS011;57161;43.136;24.706;2023-10-09T13:35:16;4.57;;;2.00;;
69878;SDS011;57161;43.136;24.706;2023-10-09T13:37:45;6.97;;;2.10;;
69878;SDS011;57161;43.136;24.706;2023-10-09T13:40:20;6.05;;;2.25;;
69878;SDS011;57161;43.136;24.706;2023-10-09T13:42:55;4.28;;;2.38;;
69878;SDS011;57161;43.136;24.706;2023-10-09T13:45:26;7.32;;;2.38;;
69878;SDS011;57161;43.136;24.706;2023-10-09T13:47:55;3.33;;;1.95;;
69878;SDS011;57161;43.136;24.706;2023-10-09T13:50:25;4.43;;;2.10;;
69878;SDS011;57161;43.136;24.706;2023-10-09T13:52:57;4.30;;;1.90;;
69878;SDS011;57161;43.136;24.706;2023-10-09T13:55:23;5.55;;;2.00;;
69878;SDS011;57161;43.136;24.706;2023-10-09T13:57:56;5.75;;;2.00;;
69878;SDS011;57161;43.136;24.706;2023-10-09T14:00:24;5.15;;;1.90;;
69878;SDS011;57161;43.136;24.706;2023-10-09T14:03:00;5.78;;;2.10;;
69878;SDS011;57161;43.136;24.706;2023-10-09T14:05:27;3.75;;;2.17;;
69878;SDS011;57161;43.136;24.706;2023-10-09T14:07:53;4.57;;;2.13;;
69878;SDS011;57161;43.136;24.706;2023-10-09T14:10:19;3.38;;;1.90;;
69878;SDS011;57161;43.136;24.706;2023-10-09T14:12:50;6.55;;;2.22;;
69878;SDS011;57161;43.136;24.706;2023-10-09T14:15:19;3.97;;;2.20;;
69878;SDS011;57161;43.136;24.706;2023-10-09T14:17:44;5.47;;;2.10;;
69878;SDS011;57161;43.136;24.706;2023-10-09T14:20:11;3.47;;;2.05;;
69878;SDS011;57161;43.136;24.706;2023-10-09T14:23:12;4.88;;;2.03;;
69878;SDS011;57161;43.136;24.706;2023-10-09T14:25:45;4.03;;;2.15;;
69878;SDS011;57161;43.136;24.706;2023-10-09T14:28:14;2.83;;;1.80;;
69878;SDS011;57161;43.136;24.706;2023-10-09T14:30:43;5.63;;;2.10;;
69878;SDS011;57161;43.136;24.706;2023-10-09T14:33:11;3.53;;;2.00;;
69878;SDS011;57161;43.136;24.706;2023-10-09T14:35:47;8.48;;;2.38;;
69878;SDS011;57161;43.136;24.706;2023-10-09T14:38:13;9.38;;;2.30;;
69878;SDS011;57161;43.136;24.706;2023-10-09T14:40:43;7.00;;;1.95;;
69878;SDS011;57161;43.136;24.706;2023-10-09T14:43:10;6.50;;;2.05;;
69878;SDS011;57161;43.136;24.706;2023-10-09T14:45:50;3.45;;;2.15;;
69878;SDS011;57161;43.136;24.706;2023-10-09T14:48:18;3.28;;;1.90;;
69878;SDS011;57161;43.136;24.706;2023-10-09T14:50:50;2.72;;;1.70;;
69878;SDS011;57161;43.136;24.706;2023-10-09T14:53:20;5.20;;;2.15;;
69878;SDS011;57161;43.136;24.706;2023-10-09T14:55:46;4.82;;;2.20;;
69878;SDS011;57161;43.136;24.706;2023-10-09T14:58:13;5.50;;;1.80;;
69878;SDS011;57161;43.136;24.706;2023-10-09T15:00:39;3.70;;;1.70;;
69878;SDS011;57161;43.136;24.706;2023-10-09T15:03:11;4.68;;;1.90;;
69878;SDS011;57161;43.136;24.706;2023-10-09T15:05:40;3.50;;;1.70;;
69878;SDS011;57161;43.136;24.706;2023-10-09T15:08:08;8.43;;;1.90;;
69878;SDS011;57161;43.136;24.706;2023-10-09T15:10:48;9.77;;;2.37;;
69878;SDS011;57161;43.136;24.706;2023-10-09T15:13:16;12.00;;;2.20;;
69878;SDS011;57161;43.136;24.706;2023-10-09T15:15:43;6.22;;;1.70;;
69878;SDS011;57161;43.136;24.706;2023-10-09T15:18:09;6.47;;;1.95;;
69878;SDS011;57161;43.136;24.706;2023-10-09T15:20:39;2.95;;;1.70;;
69878;SDS011;57161;43.136;24.706;2023-10-09T15:23:05;11.93;;;2.00;;
69878;SDS011;57161;43.136;24.706;2023-10-09T15:25:32;3.95;;;2.30;;
69878;SDS011;57161;43.136;24.706;2023-10-09T15:27:59;8.75;;;3.80;;
69878;SDS011;57161;43.136;24.706;2023-10-09T15:30:28;21.70;;;8.57;;
69878;SDS011;57161;43.136;24.706;2023-10-09T15:32:56;33.30;;;11.13;;
69878;SDS011;57161;43.136;24.706;2023-10-09T15:35:22;25.73;;;7.70;;
69878;SDS011;57161;43.136;24.706;2023-10-09T15:37:48;20.73;;;6.93;;
69878;SDS011;57161;43.136;24.706;2023-10-09T15:40:17;14.13;;;5.65;;
69878;SDS011;57161;43.136;24.706;2023-10-09T15:42:44;16.08;;;4.25;;
69878;SDS011;57161;43.136;24.706;2023-10-09T15:45:16;9.40;;;3.13;;
69878;SDS011;57161;43.136;24.706;2023-10-09T15:47:42;7.85;;;3.17;;
69878;SDS011;57161;43.136;24.706;2023-10-09T15:50:10;9.93;;;3.25;;